Time;durP1;ratioP1;P1;durP2;ratioP2;P2;SDS_P1;SDS_P2;PMS_P1;PMS_P2;Temp;Humidity;BMP_temperature;BMP_pressure;BME280_temperature;BME280_humidity;BME280_pressure;Samples;Min_cycle;Max_cycle;Signal;HPM_P1;HPM_P2
2022/04/05 00:01:14;;;;;;;;;;;;;;;7.22;81.93555;100583.4;;;;-81
2022/04/05 00:06:18;;;;;;;;;;;;;;;7.19;81.76563;100589.9;;;;-82
2022/04/05 00:08:18;;;;;;;3.4;0.8;;;;;;;;;;;;;-82
2022/04/05 00:11:15;;;;;;;;;;;;;;;7.18;81.59766;100591.7;;;;-80
2022/04/05 00:16:13;;;;;;;;;;;;;;;7.16;81.70605;100596.3;;;;-82
2022/04/05 00:21:14;;;;;;;;;;;;;;;7.14;81.53613;100596.8;;;;-82
2022/04/05 00:26:15;;;;;;;;;;;;;;;7.12;81.64258;100605.3;;;;-83
2022/04/05 00:31:14;;;;;;;;;;;;;;;7.1;81.50684;100601.6;;;;-80
2022/04/05 00:36:14;;;;;;;;;;;;;;;7.08;81.61328;100599;;;;-82
2022/04/05 00:38:15;;;;;;;2.4;0.7;;;;;;;;;;;;;-81
2022/04/05 00:41:21;;;;;;;;;;;;;;;7.07;81.58789;100597.5;;;;-81
2022/04/05 00:46:14;;;;;;;;;;;;;;;7.05;81.41992;100592.9;;;;-82
2022/04/05 00:51:23;;;;;;;;;;;;;;;7.03;81.42578;100581.9;;;;-81
2022/04/05 00:56:15;;;;;;;;;;;;;;;7.01;81.24902;100574.9;;;;-82
2022/04/05 01:01:16;;;;;;;;;;;;;;;7;81.20117;100579.3;;;;-82
2022/04/05 01:06:17;;;;;;;;;;;;;;;6.98;81;100574.4;;;;-81
2022/04/05 01:08:16;;;;;;;1.9;0.8;;;;;;;;;;;;;-81
2022/04/05 01:11:16;;;;;;;;;;;;;;;6.96;81.05371;100576.8;;;;-83
2022/04/05 01:16:14;;;;;;;;;;;;;;;6.95;80.79785;100578.9;;;;-80
2022/04/05 01:21:16;;;;;;;;;;;;;;;6.93;80.76367;100580.2;;;;-81
2022/04/05 01:26:13;;;;;;;;;;;;;;;6.92;80.63965;100574.8;;;;-80
2022/04/05 01:31:14;;;;;;;;;;;;;;;6.92;80.62793;100576.5;;;;-79
2022/04/05 01:36:24;;;;;;;;;;;;;;;6.9;80.61426;100574.5;;;;-81
2022/04/05 01:38:17;;;;;;;1.8;0.6;;;;;;;;;;;;;-81
2022/04/05 01:41:16;;;;;;;;;;;;;;;6.9;80.50293;100574.4;;;;-81
2022/04/05 01:46:14;;;;;;;;;;;;;;;6.88;80.96191;100571.3;;;;-79
2022/04/05 01:51:15;;;;;;;;;;;;;;;6.87;80.71875;100584.3;;;;-81
2022/04/05 01:56:14;;;;;;;;;;;;;;;6.88;80.6416;100584.7;;;;-81
2022/04/05 02:01:15;;;;;;;;;;;;;;;6.86;80.65137;100581.3;;;;-81
2022/04/05 02:06:18;;;;;;;;;;;;;;;6.85;80.60352;100574.3;;;;-82
2022/04/05 02:08:18;;;;;;;2.7;0.7;;;;;;;;;;;;;-82
2022/04/05 02:11:15;;;;;;;;;;;;;;;6.84;80.3623;100572.7;;;;-82
2022/04/05 02:16:14;;;;;;;;;;;;;;;6.84;80.36035;100573;;;;-82
2022/04/05 02:21:14;;;;;;;;;;;;;;;6.83;80.36035;100572.4;;;;-81
2022/04/05 02:26:14;;;;;;;;;;;;;;;6.83;80.25879;100573.8;;;;-80
2022/04/05 02:31:16;;;;;;;;;;;;;;;6.82;80.5;100569.9;;;;-82
2022/04/05 02:36:16;;;;;;;;;;;;;;;6.81;81.50684;100568.4;;;;-80
2022/04/05 02:38:17;;;;;;;2.8;1;;;;;;;;;;;;;-80
2022/04/05 02:41:19;;;;;;;;;;;;;;;6.79;81.2627;100564.3;;;;-79
2022/04/05 02:46:14;;;;;;;;;;;;;;;6.79;81.21875;100554.4;;;;-81
2022/04/05 02:51:15;;;;;;;;;;;;;;;6.79;81.22949;100563.1;;;;-80
2022/04/05 02:56:14;;;;;;;;;;;;;;;6.79;81.25195;100572.6;;;;-81
2022/04/05 03:01:15;;;;;;;;;;;;;;;6.78;81.17285;100567.4;;;;-80
2022/04/05 03:06:14;;;;;;;;;;;;;;;6.78;81.67773;100572.3;;;;-81
2022/04/05 03:08:31;;;;;;;6.2;2.9;;;;;;;;;;;;;-81
2022/04/05 03:11:14;;;;;;;;;;;;;;;6.8;82.91797;100572.3;;;;-81
2022/04/05 03:21:18;;;;;;;;;;;;;;;6.81;83.37109;100574.5;;;;-82
2022/04/05 03:26:18;;;;;;;;;;;;;;;6.81;82.63672;100570.6;;;;-83
2022/04/05 03:31:20;;;;;;;;;;;;;;;6.82;82.7041;100566.3;;;;-83
2022/04/05 03:36:13;;;;;;;;;;;;;;;6.84;83.2002;100561.9;;;;-81
2022/04/05 03:38:18;;;;;;;8.8;3.8;;;;;;;;;;;;;-80
2022/04/05 03:41:15;;;;;;;;;;;;;;;6.83;82.9043;100562.1;;;;-81
2022/04/05 03:46:20;;;;;;;;;;;;;;;6.84;82.6084;100561.2;;;;-81
2022/04/05 03:51:20;;;;;;;;;;;;;;;6.84;82.65234;100556.9;;;;-81
2022/04/05 03:56:14;;;;;;;;;;;;;;;6.84;83.29004;100550.1;;;;-80
2022/04/05 04:01:15;;;;;;;;;;;;;;;6.84;82.86035;100555.7;;;;-82
2022/04/05 04:06:14;;;;;;;;;;;;;;;6.84;82.66309;100549.7;;;;-80
2022/04/05 04:08:26;;;;;;;5.7;2.5;;;;;;;;;;;;;-79
2022/04/05 04:11:17;;;;;;;;;;;;;;;6.83;82.32324;100541.1;;;;-80
2022/04/05 04:16:13;;;;;;;;;;;;;;;6.84;82.74219;100543.4;;;;-80
2022/04/05 04:21:13;;;;;;;;;;;;;;;6.83;82.33301;100539.4;;;;-81
2022/04/05 04:26:16;;;;;;;;;;;;;;;6.84;82.81738;100535.3;;;;-81
2022/04/05 04:31:14;;;;;;;;;;;;;;;6.84;83.54199;100536.8;;;;-80
2022/04/05 04:36:16;;;;;;;;;;;;;;;6.84;83.13477;100534.1;;;;-80
2022/04/05 04:38:19;;;;;;;7.5;3.4;;;;;;;;;;;;;-80
2022/04/05 04:41:18;;;;;;;;;;;;;;;6.85;83.37793;100529.7;;;;-82
2022/04/05 04:46:14;;;;;;;;;;;;;;;6.84;82.99414;100534;;;;-83
2022/04/05 04:51:14;;;;;;;;;;;;;;;6.85;82.91699;100532.6;;;;-80
2022/04/05 04:56:13;;;;;;;;;;;;;;;6.85;83.04883;100534.6;;;;-80
2022/04/05 05:01:13;;;;;;;;;;;;;;;6.85;83.5;100539;;;;-80
2022/04/05 05:06:13;;;;;;;;;;;;;;;6.85;82.6875;100530.5;;;;-80
2022/04/05 05:08:19;;;;;;;8.5;3.9;;;;;;;;;;;;;-81
2022/04/05 05:11:15;;;;;;;;;;;;;;;6.85;82.88574;100525.7;;;;-80
2022/04/05 05:16:13;;;;;;;;;;;;;;;6.87;82.9209;100524.1;;;;-80
2022/04/05 05:21:13;;;;;;;;;;;;;;;6.88;83.59277;100527;;;;-80
2022/04/05 05:26:14;;;;;;;;;;;;;;;6.88;83.19629;100523.5;;;;-80
2022/04/05 05:31:14;;;;;;;;;;;;;;;6.89;83.74805;100524.9;;;;-80
2022/04/05 05:36:14;;;;;;;;;;;;;;;6.9;83.43066;100524;;;;-82
2022/04/05 05:38:20;;;;;;;7.7;3.3;;;;;;;;;;;;;-81
2022/04/05 05:41:14;;;;;;;;;;;;;;;6.9;82.70801;100520.6;;;;-81
2022/04/05 05:46:17;;;;;;;;;;;;;;;6.92;83.33691;100516.3;;;;-79
2022/04/05 05:51:27;;;;;;;;;;;;;;;6.95;83.85742;100519.4;;;;-80
2022/04/05 05:56:24;;;;;;;;;;;;;;;6.98;84.19336;100520.4;;;;-79
2022/04/05 06:01:16;;;;;;;;;;;;;;;7.04;84.72949;100522.8;;;;-81
2022/04/05 06:06:14;;;;;;;;;;;;;;;7.13;86.22852;100527;;;;-83
2022/04/05 06:08:19;;;;;;;10.7;4.8;;;;;;;;;;;;;-81
2022/04/05 06:11:13;;;;;;;;;;;;;;;7.22;86.93555;100520.3;;;;-81
2022/04/05 06:16:14;;;;;;;;;;;;;;;7.3;87.39063;100524.4;;;;-79
2022/04/05 06:21:14;;;;;;;;;;;;;;;7.36;87.18164;100531.5;;;;-82
2022/04/05 06:26:14;;;;;;;;;;;;;;;7.43;87.77734;100531.4;;;;-82
2022/04/05 06:31:14;;;;;;;;;;;;;;;7.5;87.95703;100535;;;;-81
2022/04/05 06:36:14;;;;;;;;;;;;;;;7.59;88.9502;100541;;;;-83
2022/04/05 06:38:20;;;;;;;10.6;3.2;;;;;;;;;;;;;-81
2022/04/05 06:41:16;;;;;;;;;;;;;;;7.65;88.57617;100535.2;;;;-82
2022/04/05 06:46:15;;;;;;;;;;;;;;;7.74;88.99121;100546.3;;;;-82
2022/04/05 06:51:13;;;;;;;;;;;;;;;7.83;89.20703;100547.3;;;;-81
2022/04/05 06:56:13;;;;;;;;;;;;;;;7.9;89.1875;100551.4;;;;-80
2022/04/05 07:01:13;;;;;;;;;;;;;;;7.98;89.40332;100553.9;;;;-81
2022/04/05 07:06:15;;;;;;;;;;;;;;;8.07;89.31055;100555;;;;-81
2022/04/05 07:08:20;;;;;;;12.3;2.5;;;;;;;;;;;;;-82
2022/04/05 07:11:14;;;;;;;;;;;;;;;8.14;89.27051;100561.1;;;;-82
2022/04/05 07:16:22;;;;;;;;;;;;;;;8.18;89.02734;100553.9;;;;-80
2022/04/05 07:21:15;;;;;;;;;;;;;;;8.24;89.30273;100555.7;;;;-81
2022/04/05 07:26:15;;;;;;;;;;;;;;;8.29;89.09375;100563.4;;;;-80
2022/04/05 07:31:14;;;;;;;;;;;;;;;8.33;89.03711;100566.5;;;;-81
2022/04/05 07:36:13;;;;;;;;;;;;;;;8.35;88.96289;100561.7;;;;-82
2022/04/05 07:38:21;;;;;;;10.8;2.6;;;;;;;;;;;;;-80
2022/04/05 07:41:13;;;;;;;;;;;;;;;8.38;89.24414;100556.3;;;;-81
2022/04/05 07:46:14;;;;;;;;;;;;;;;8.43;89.06738;100557.8;;;;-81
2022/04/05 07:51:21;;;;;;;;;;;;;;;8.5;88.98145;100554.1;;;;-81
2022/04/05 07:56:14;;;;;;;;;;;;;;;8.59;89.30762;100557.8;;;;-83
2022/04/05 08:01:15;;;;;;;;;;;;;;;8.7;89.54004;100560.3;;;;-82
2022/04/05 08:06:14;;;;;;;;;;;;;;;8.79;88.88672;100568.2;;;;-81
2022/04/05 08:08:21;;;;;;;10.1;2.2;;;;;;;;;;;;;-83
2022/04/05 08:11:14;;;;;;;;;;;;;;;8.85;88.93262;100559.5;;;;-81
2022/04/05 08:16:18;;;;;;;;;;;;;;;8.94;89.03906;100568;;;;-82
2022/04/05 08:21:15;;;;;;;;;;;;;;;9.03;89.00293;100565;;;;-79
2022/04/05 08:26:13;;;;;;;;;;;;;;;9.06;88.31543;100567.8;;;;-80
2022/04/05 08:31:13;;;;;;;;;;;;;;;9.07;88.26074;100568.9;;;;-77
2022/04/05 08:36:14;;;;;;;;;;;;;;;9.07;88.03125;100563.4;;;;-79
2022/04/05 08:38:22;;;;;;;9.2;2.4;;;;;;;;;;;;;-79
2022/04/05 08:41:14;;;;;;;;;;;;;;;9.1;87.91602;100570.6;;;;-78
2022/04/05 08:46:15;;;;;;;;;;;;;;;9.14;88.47266;100570.6;;;;-78
2022/04/05 08:51:13;;;;;;;;;;;;;;;9.18;88.18652;100574;;;;-79
2022/04/05 08:56:14;;;;;;;;;;;;;;;9.24;88.63867;100580.4;;;;-79
2022/04/05 09:01:13;;;;;;;;;;;;;;;9.29;88.15234;100585.8;;;;-78
2022/04/05 09:06:24;;;;;;;;;;;;;;;9.36;89.15723;100581.2;;;;-78
2022/04/05 09:08:27;;;;;;;12.2;2.8;;;;;;;;;;;;;-79
2022/04/05 09:11:20;;;;;;;;;;;;;;;9.49;89.13965;100578.4;;;;-80
2022/04/05 09:16:13;;;;;;;;;;;;;;;9.64;88.9707;100575.8;;;;-79
2022/04/05 09:21:14;;;;;;;;;;;;;;;9.72;88.65918;100585;;;;-78
2022/04/05 09:26:14;;;;;;;;;;;;;;;9.79;88.30859;100583.6;;;;-79
2022/04/05 09:31:14;;;;;;;;;;;;;;;9.86;88.01465;100589.7;;;;-77
2022/04/05 09:36:17;;;;;;;;;;;;;;;9.91;87.47266;100581.5;;;;-78
2022/04/05 09:38:26;;;;;;;9.1;2.9;;;;;;;;;;;;;-79
2022/04/05 09:41:18;;;;;;;;;;;;;;;9.94;87.97559;100585.4;;;;-79
2022/04/05 09:46:14;;;;;;;;;;;;;;;10.14;88.57813;100589;;;;-80
2022/04/05 09:51:16;;;;;;;;;;;;;;;10.3;88.01367;100594.9;;;;-79
2022/04/05 09:56:14;;;;;;;;;;;;;;;10.33;86.91797;100588.7;;;;-80
2022/04/05 10:01:13;;;;;;;;;;;;;;;10.34;87.04102;100593.7;;;;-79
2022/04/05 10:06:13;;;;;;;;;;;;;;;10.44;87.21582;100602.9;;;;-81
2022/04/05 10:08:25;;;;;;;6.6;2.6;;;;;;;;;;;;;-79
2022/04/05 10:11:13;;;;;;;;;;;;;;;10.48;86.57129;100598.1;;;;-80
2022/04/05 10:16:15;;;;;;;;;;;;;;;10.54;86.20898;100603.1;;;;-78
2022/04/05 10:21:15;;;;;;;;;;;;;;;10.63;86.28223;100593.2;;;;-79
2022/04/05 10:26:16;;;;;;;;;;;;;;;10.77;86.3418;100601.3;;;;-79
2022/04/05 10:31:18;;;;;;;;;;;;;;;10.87;85.93066;100602;;;;-78
2022/04/05 10:36:13;;;;;;;;;;;;;;;10.9;85.12891;100609.4;;;;-79
2022/04/05 10:38:25;;;;;;;9.1;2.9;;;;;;;;;;;;;-79
2022/04/05 10:41:21;;;;;;;;;;;;;;;10.94;85.25977;100616.3;;;;-79
2022/04/05 10:46:14;;;;;;;;;;;;;;;10.98;84.69141;100604.7;;;;-79
2022/04/05 10:51:30;;;;;;;;;;;;;;;10.99;84.45117;100609.7;;;;-79
2022/04/05 10:56:22;;;;;;;;;;;;;;;11.05;84.60547;100604.6;;;;-81
2022/04/05 11:01:20;;;;;;;;;;;;;;;11.08;83.93555;100605.6;;;;-79
2022/04/05 11:06:13;;;;;;;;;;;;;;;11.07;83.2793;100605.3;;;;-78
2022/04/05 11:08:27;;;;;;;8.4;2.9;;;;;;;;;;;;;-78
2022/04/05 11:11:17;;;;;;;;;;;;;;;11.01;83.11621;100600.8;;;;-78
2022/04/05 11:16:16;;;;;;;;;;;;;;;10.95;83.13672;100610.2;;;;-78
2022/04/05 11:21:14;;;;;;;;;;;;;;;10.9;83.0293;100602.8;;;;-79
2022/04/05 11:26:24;;;;;;;;;;;;;;;10.88;83.27832;100604.8;;;;-78
2022/04/05 11:31:13;;;;;;;;;;;;;;;10.91;83.32813;100609.3;;;;-79
2022/04/05 11:36:14;;;;;;;;;;;;;;;10.9;83.0498;100603.4;;;;-78
2022/04/05 11:38:36;;;;;;;8.3;3.5;;;;;;;;;;;;;-77
2022/04/05 11:41:14;;;;;;;;;;;;;;;10.89;83.32422;100597.2;;;;-79
2022/04/05 11:46:13;;;;;;;;;;;;;;;10.89;83.52344;100598.6;;;;-78
2022/04/05 11:51:16;;;;;;;;;;;;;;;10.89;83.43457;100597;;;;-80
2022/04/05 11:56:14;;;;;;;;;;;;;;;10.9;83.98047;100601.2;;;;-77
2022/04/05 12:01:14;;;;;;;;;;;;;;;10.93;84.02832;100595.6;;;;-79
2022/04/05 12:06:13;;;;;;;;;;;;;;;10.95;83.71289;100600.9;;;;-77
2022/04/05 12:08:30;;;;;;;14.5;4.4;;;;;;;;;;;;;-77
2022/04/05 12:11:14;;;;;;;;;;;;;;;10.99;84.6582;100598.3;;;;-78
2022/04/05 12:16:14;;;;;;;;;;;;;;;11.07;85.20801;100592.4;;;;-78
2022/04/05 12:21:13;;;;;;;;;;;;;;;11.22;84.66113;100592;;;;-78
2022/04/05 12:26:15;;;;;;;;;;;;;;;11.37;85.01074;100589.1;;;;-79
2022/04/05 12:31:17;;;;;;;;;;;;;;;11.43;84.37891;100596;;;;-80
2022/04/05 12:36:13;;;;;;;;;;;;;;;11.42;83.79199;100592.3;;;;-76
2022/04/05 12:38:30;;;;;;;11.1;4.6;;;;;;;;;;;;;-77
2022/04/05 12:41:18;;;;;;;;;;;;;;;11.42;84.11133;100586.9;;;;-78
2022/04/05 12:46:18;;;;;;;;;;;;;;;11.43;84.74414;100583.4;;;;-78
2022/04/05 12:51:13;;;;;;;;;;;;;;;11.49;84.18066;100585;;;;-78
2022/04/05 12:56:15;;;;;;;;;;;;;;;11.54;83.94727;100588.4;;;;-76
2022/04/05 13:01:24;;;;;;;;;;;;;;;11.52;83.24609;100583.2;;;;-78
2022/04/05 13:06:26;;;;;;;;;;;;;;;11.51;83.63086;100577.8;;;;-78
2022/04/05 13:08:35;;;;;;;13.5;4.5;;;;;;;;;;;;;-78
2022/04/05 13:11:28;;;;;;;;;;;;;;;11.58;83.86621;100573.8;;;;-79
2022/04/05 13:16:15;;;;;;;;;;;;;;;11.61;83.10645;100582.1;;;;-78
2022/04/05 13:21:15;;;;;;;;;;;;;;;11.54;82.71582;100575.2;;;;-79
2022/04/05 13:26:27;;;;;;;;;;;;;;;11.48;82.73828;100578.6;;;;-79
2022/04/05 13:31:15;;;;;;;;;;;;;;;11.45;82.94238;100578.7;;;;-78
2022/04/05 13:36:14;;;;;;;;;;;;;;;11.41;82.67871;100580.6;;;;-82
2022/04/05 13:38:32;;;;;;;11.3;3.9;;;;;;;;;;;;;-78
2022/04/05 13:41:18;;;;;;;;;;;;;;;11.36;82.9248;100576;;;;-80
2022/04/05 13:46:13;;;;;;;;;;;;;;;11.29;82.7041;100581.3;;;;-78
2022/04/05 13:51:16;;;;;;;;;;;;;;;11.24;82.99121;100577.5;;;;-79
2022/04/05 13:56:17;;;;;;;;;;;;;;;11.22;83.07617;100571.6;;;;-78
2022/04/05 14:01:20;;;;;;;;;;;;;;;11.19;82.94824;100565.8;;;;-79
2022/04/05 14:06:13;;;;;;;;;;;;;;;11.17;83.18066;100560.3;;;;-79
2022/04/05 14:08:35;;;;;;;11.8;4.2;;;;;;;;;;;;;-79
2022/04/05 14:11:18;;;;;;;;;;;;;;;11.17;83.17871;100564.8;;;;-79
2022/04/05 14:16:13;;;;;;;;;;;;;;;11.07;83.45703;100579.2;;;;-79
2022/04/05 14:21:13;;;;;;;;;;;;;;;10.89;84.04492;100569.8;;;;-78
2022/04/05 14:26:13;;;;;;;;;;;;;;;10.81;83.97266;100564.6;;;;-80
2022/04/05 14:31:17;;;;;;;;;;;;;;;10.75;84.17188;100565.7;;;;-78
2022/04/05 14:36:15;;;;;;;;;;;;;;;10.67;84.52051;100564.3;;;;-79
2022/04/05 14:38:35;;;;;;;10.3;4.3;;;;;;;;;;;;;-78
2022/04/05 14:41:13;;;;;;;;;;;;;;;10.61;84.45313;100557.1;;;;-79
2022/04/05 14:46:13;;;;;;;;;;;;;;;10.55;84.68555;100551.7;;;;-78
2022/04/05 14:51:14;;;;;;;;;;;;;;;10.45;85.19727;100542.2;;;;-79
2022/04/05 14:56:14;;;;;;;;;;;;;;;10.42;84.9043;100538;;;;-78
2022/04/05 15:01:13;;;;;;;;;;;;;;;10.36;84.9248;100537;;;;-79
2022/04/05 15:06:13;;;;;;;;;;;;;;;10.31;85.11328;100534.8;;;;-78
2022/04/05 15:08:36;;;;;;;10.8;3.3;;;;;;;;;;;;;-79
2022/04/05 15:11:17;;;;;;;;;;;;;;;10.28;85.17383;100528.4;;;;-79
2022/04/05 15:16:13;;;;;;;;;;;;;;;10.27;85.16113;100525.8;;;;-79
2022/04/05 15:21:13;;;;;;;;;;;;;;;10.28;85.14063;100524.2;;;;-78
2022/04/05 15:26:13;;;;;;;;;;;;;;;10.26;85.09375;100517.4;;;;-78
2022/04/05 15:31:13;;;;;;;;;;;;;;;10.26;85.2041;100523.2;;;;-79
2022/04/05 15:38:38;;;;;;;9.9;3.3;;;;;;;;;;;;;-80
2022/04/05 15:41:17;;;;;;;;;;;;;;;10.29;85.22949;100512.5;;;;-79
2022/04/05 15:46:17;;;;;;;;;;;;;;;10.32;84.80762;100514.8;;;;-80
2022/04/05 15:51:13;;;;;;;;;;;;;;;10.33;84.54395;100510.7;;;;-79
2022/04/05 15:56:15;;;;;;;;;;;;;;;10.33;84.97461;100510.7;;;;-79
2022/04/05 16:01:13;;;;;;;;;;;;;;;10.34;84.87695;100510.4;;;;-79
2022/04/05 16:06:13;;;;;;;;;;;;;;;10.35;84.97852;100508.4;;;;-79
2022/04/05 16:08:49;;;;;;;11.1;3.7;;;;;;;;;;;;;-79
2022/04/05 16:11:14;;;;;;;;;;;;;;;10.36;84.37305;100513.3;;;;-80
2022/04/05 16:16:15;;;;;;;;;;;;;;;10.36;84.24023;100502.3;;;;-79
2022/04/05 16:21:27;;;;;;;;;;;;;;;10.34;84.30176;100500.3;;;;-81
2022/04/05 16:35:21;;;;;;;;;;;;;;;10.23;84.10547;100500.6;;;;-79
2022/04/05 16:39:07;;;;;;;8.5;3.3;;;;;;;;;;;;;-80
2022/04/05 16:40:24;;;;;;;;;;;;;;;10.18;84.08398;100497.1;;;;-79
2022/04/05 16:45:21;;;;;;;;;;;;;;;10.12;84.05078;100501.4;;;;-80
2022/04/05 16:50:20;;;;;;;;;;;;;;;10.07;84.0625;100500.6;;;;-80
2022/04/05 16:55:19;;;;;;;;;;;;;;;10.02;84.09668;100496.4;;;;-78
2022/04/05 17:00:22;;;;;;;;;;;;;;;9.98;83.86816;100490.2;;;;-79
2022/04/05 17:05:19;;;;;;;;;;;;;;;9.93;84.36719;100493.4;;;;-79
2022/04/05 17:08:41;;;;;;;11.3;3.1;;;;;;;;;;;;;-78
2022/04/05 17:10:19;;;;;;;;;;;;;;;9.89;84.21582;100492.5;;;;-78
2022/04/05 17:15:21;;;;;;;;;;;;;;;9.84;84.31641;100502.6;;;;-78
2022/04/05 17:20:20;;;;;;;;;;;;;;;9.81;84.30957;100505;;;;-80
2022/04/05 17:25:21;;;;;;;;;;;;;;;9.78;83.65527;100502.9;;;;-80
2022/04/05 17:30:27;;;;;;;;;;;;;;;9.75;83.7041;100505.8;;;;-80
2022/04/05 17:35:19;;;;;;;;;;;;;;;9.71;83.70605;100513.9;;;;-79
2022/04/05 17:38:41;;;;;;;12.1;2.9;;;;;;;;;;;;;-77
2022/04/05 17:40:19;;;;;;;;;;;;;;;9.67;83.77637;100515.2;;;;-81
2022/04/05 17:45:21;;;;;;;;;;;;;;;9.64;83.29492;100512.6;;;;-80
2022/04/05 17:50:21;;;;;;;;;;;;;;;9.58;83.60645;100509.6;;;;-80
2022/04/05 17:55:22;;;;;;;;;;;;;;;9.55;83.52246;100512;;;;-80
2022/04/05 18:00:21;;;;;;;;;;;;;;;9.5;84.48145;100504.5;;;;-80
2022/04/05 18:05:28;;;;;;;;;;;;;;;9.44;84.17188;100507.5;;;;-80
2022/04/05 18:08:42;;;;;;;9.8;2.9;;;;;;;;;;;;;-80
2022/04/05 18:10:20;;;;;;;;;;;;;;;9.4;83.88965;100505.9;;;;-81
2022/04/05 18:15:23;;;;;;;;;;;;;;;9.36;83.76074;100505.9;;;;-81
2022/04/05 18:20:21;;;;;;;;;;;;;;;9.31;83.75195;100501.7;;;;-79
2022/04/05 18:25:20;;;;;;;;;;;;;;;9.27;83.67773;100503.9;;;;-80
2022/04/05 18:30:20;;;;;;;;;;;;;;;9.22;83.54785;100511.2;;;;-80
2022/04/05 18:35:27;;;;;;;;;;;;;;;9.17;83.38281;100503.3;;;;-83
2022/04/05 18:38:52;;;;;;;18.1;3.2;;;;;;;;;;;;;-82
2022/04/05 18:40:29;;;;;;;;;;;;;;;9.13;83.68457;100508.5;;;;-82
2022/04/05 18:45:23;;;;;;;;;;;;;;;9.1;83.65527;100501.1;;;;-83
2022/04/05 18:50:22;;;;;;;;;;;;;;;9.07;83.79102;100499.9;;;;-84
2022/04/05 18:55:36;;;;;;;;;;;;;;;9.04;83.90723;100508.5;;;;-83
2022/04/05 19:00:21;;;;;;;;;;;;;;;9.01;83.85938;100511.3;;;;-82
2022/04/05 19:05:21;;;;;;;;;;;;;;;9;84.05664;100523.3;;;;-84
2022/04/05 19:08:46;;;;;;;13.9;3.5;;;;;;;;;;;;;-82
2022/04/05 19:10:20;;;;;;;;;;;;;;;8.98;84.43652;100516.4;;;;-84
2022/04/05 19:15:25;;;;;;;;;;;;;;;8.95;84.75;100511.8;;;;-83
2022/04/05 19:20:20;;;;;;;;;;;;;;;8.93;85.26465;100512.7;;;;-83
2022/04/05 19:25:24;;;;;;;;;;;;;;;8.89;84.55078;100511.5;;;;-83
2022/04/05 19:30:23;;;;;;;;;;;;;;;8.88;84.98926;100511;;;;-84
2022/04/05 19:35:33;;;;;;;;;;;;;;;8.83;84.89258;100505.3;;;;-83
2022/04/05 19:44:56;;;;;;;;;;;;;;;8.78;84.50977;100511.1;;;;-84
2022/04/05 19:49:29;;;;;;;;;;;;;;;8.76;84.83398;100507.2;;;;-82
2022/04/05 19:59:20;;;;;;;;;;;;;;;8.71;85.34277;100501.1;;;;-84
2022/04/05 20:04:30;;;;;;;;;;;;;;;8.68;85.19434;100498.4;;;;-82
2022/04/05 20:08:48;;;;;;;15.2;4.2;;;;;;;;;;;;;-81
2022/04/05 20:09:15;;;;;;;;;;;;;;;8.67;85.20117;100492;;;;-81
2022/04/05 20:14:16;;;;;;;;;;;;;;;8.65;84.9541;100497.8;;;;-81
2022/04/05 20:19:18;;;;;;;;;;;;;;;8.63;85.2041;100494.8;;;;-82
2022/04/05 20:24:18;;;;;;;;;;;;;;;8.61;84.88281;100486.7;;;;-81
2022/04/05 20:29:21;;;;;;;;;;;;;;;8.59;85.02246;100487.3;;;;-83
2022/04/05 20:34:18;;;;;;;;;;;;;;;8.58;84.91113;100484.5;;;;-82
2022/04/05 20:38:46;;;;;;;21.2;4.8;;;;;;;;;;;;;-80
2022/04/05 20:39:15;;;;;;;;;;;;;;;8.56;85.09277;100478.3;;;;-81
2022/04/05 20:44:17;;;;;;;;;;;;;;;8.55;85.2002;100474.7;;;;-81
2022/04/05 20:49:20;;;;;;;;;;;;;;;8.53;85.25195;100467.5;;;;-82
2022/04/05 20:54:17;;;;;;;;;;;;;;;8.52;85.42578;100467.6;;;;-81
2022/04/05 20:59:19;;;;;;;;;;;;;;;8.52;84.98633;100468.2;;;;-82
2022/04/05 21:04:15;;;;;;;;;;;;;;;8.5;84.97168;100461.4;;;;-80
2022/04/05 21:08:53;;;;;;;16.4;5;;;;;;;;;;;;;-82
2022/04/05 21:09:24;;;;;;;;;;;;;;;8.48;85.33105;100458.6;;;;-81
2022/04/05 21:14:14;;;;;;;;;;;;;;;8.48;85.18652;100454.5;;;;-81
2022/04/05 21:19:16;;;;;;;;;;;;;;;8.46;85.30371;100450.6;;;;-81
2022/04/05 21:24:16;;;;;;;;;;;;;;;8.45;85.20508;100440.5;;;;-82
2022/04/05 21:34:20;;;;;;;;;;;;;;;8.43;85.07813;100434.3;;;;-81
2022/04/05 21:38:49;;;;;;;22.8;5.1;;;;;;;;;;;;;-82
2022/04/05 21:39:15;;;;;;;;;;;;;;;8.42;85.11914;100427.4;;;;-81
2022/04/05 21:44:20;;;;;;;;;;;;;;;8.41;85.26172;100428.2;;;;-83
2022/04/05 21:49:17;;;;;;;;;;;;;;;8.4;84.68848;100419.9;;;;-81
2022/04/05 21:54:18;;;;;;;;;;;;;;;8.41;84.97559;100415.9;;;;-81
2022/04/05 21:59:19;;;;;;;;;;;;;;;8.4;85.22559;100406.7;;;;-83
2022/04/05 22:04:15;;;;;;;;;;;;;;;8.38;85.03613;100400.3;;;;-81
2022/04/05 22:08:48;;;;;;;16.2;4.6;;;;;;;;;;;;;-81
2022/04/05 22:09:22;;;;;;;;;;;;;;;8.37;84.93359;100395.4;;;;-81
2022/04/05 22:14:31;;;;;;;;;;;;;;;8.37;84.71387;100394.1;;;;-81
2022/04/05 22:19:17;;;;;;;;;;;;;;;8.38;84.84766;100381.7;;;;-81
2022/04/05 22:24:16;;;;;;;;;;;;;;;8.39;84.60742;100378.7;;;;-80
2022/04/05 22:29:15;;;;;;;;;;;;;;;8.39;84.66309;100379.5;;;;-82
2022/04/05 22:34:21;;;;;;;;;;;;;;;8.4;84.49023;100373.4;;;;-81
2022/04/05 22:38:50;;;;;;;10.2;3.1;;;;;;;;;;;;;-81
2022/04/05 22:39:15;;;;;;;;;;;;;;;8.43;84.24316;100376.5;;;;-81
2022/04/05 22:44:15;;;;;;;;;;;;;;;8.46;84.2041;100371;;;;-81
2022/04/05 22:49:20;;;;;;;;;;;;;;;8.46;83.88477;100370.4;;;;-82
2022/04/05 22:54:14;;;;;;;;;;;;;;;8.48;83.68164;100370.1;;;;-82
2022/04/05 22:59:30;;;;;;;;;;;;;;;8.5;83.42969;100366.4;;;;-81
2022/04/05 23:04:19;;;;;;;;;;;;;;;8.5;83.49609;100364.6;;;;-83
2022/04/05 23:08:52;;;;;;;14.7;2.8;;;;;;;;;;;;;-82
2022/04/05 23:09:17;;;;;;;;;;;;;;;8.5;83.4541;100348.3;;;;-82
2022/04/05 23:14:17;;;;;;;;;;;;;;;8.51;83.32324;100355.7;;;;-81
2022/04/05 23:19:24;;;;;;;;;;;;;;;8.51;83.14746;100337.1;;;;-81
2022/04/05 23:24:18;;;;;;;;;;;;;;;8.5;83.2207;100338.6;;;;-80
2022/04/05 23:29:15;;;;;;;;;;;;;;;8.48;83.03223;100340.1;;;;-81
2022/04/05 23:34:18;;;;;;;;;;;;;;;8.47;82.95215;100341.3;;;;-80
2022/04/05 23:38:55;;;;;;;7.2;2.3;;;;;;;;;;;;;-80
2022/04/05 23:39:18;;;;;;;;;;;;;;;8.47;82.97559;100336.7;;;;-81
2022/04/05 23:44:24;;;;;;;;;;;;;;;8.48;82.8125;100339.4;;;;-81
2022/04/05 23:49:18;;;;;;;;;;;;;;;8.47;82.60156;100330.8;;;;-80
2022/04/05 23:54:22;;;;;;;;;;;;;;;8.47;82.32422;100327.9;;;;-83
2022/04/05 23:59:15;;;;;;;;;;;;;;;8.48;82.05273;100331.8;;;;-80
